Terminal Aerodrome Forecast
Issued by NWS

Home | Current Version | Previous Version | Text Only | Print | Product List | Glossary On
Versions: 1 2 3 4 5 6 7 8 9 10 11 12 13 14 15 16 17 18 19 20 21 22 23 24 25 26 27 28 29 30
000
FTAK31 PAFA 281740
TAFAQT
TAF
PAQT 281740Z 2818/2918 08013KT P6SM BKN008
     FM290900 08015KT 2SM BR OVC007
     FM291400 07015KT 1/2SM -FZDZ FG OVC003=

USA.gov is the U.S. government's official web portal to all federal, state and local government web resources and services.